Wetterdaten: aktuell Samstag, 09.05.2026 09:07
Datum Zeit Temp. A. Feuchte A. Luftdruck Regen Wind Richtung Richtung Taupunkt Windchill
09.05.2026 09:07 13,0 °C 59 % 1012,4 hPa 0,0 l/m² 4,6 km/h (1 Bft) N 350 ° 5,2 °C 13,0 °C
09.05.2026 09:05 12,9 °C 59 % 1012,4 hPa 0,0 l/m² 4,3 km/h (1 Bft) N 350 ° 5,1 °C 12,9 °C
09.05.2026 09:03 12,8 °C 61 % 1012,4 hPa 0,0 l/m² 3,3 km/h (1 Bft) N 350 ° 5,5 °C 12,8 °C
09.05.2026 09:01 12,8 °C 61 % 1012,4 hPa 0,0 l/m² 4,2 km/h (1 Bft) N 350 ° 5,5 °C 12,8 °C
09.05.2026 08:59 12,6 °C 61 % 1012,4 hPa 0,0 l/m² 4,2 km/h (1 Bft) N 350 ° 5,3 °C 12,6 °C
09.05.2026 08:57 12,5 °C 61 % 1012,4 hPa 0,0 l/m² 3,3 km/h (1 Bft) N 355 ° 5,2 °C 12,5 °C
09.05.2026 08:55 12,5 °C 61 % 1012,4 hPa 0,0 l/m² 1,0 km/h (0 Bft) N 355 ° 5,2 °C 12,5 °C
09.05.2026 08:53 12,4 °C 62 % 1012,4 hPa 0,0 l/m² 1,0 km/h (0 Bft) N 355 ° 5,3 °C 12,4 °C
09.05.2026 08:51 12,2 °C 63 % 1012,4 hPa 0,0 l/m² 1,0 km/h (0 Bft) N 355 ° 5,4 °C 12,2 °C
09.05.2026 08:49 12,2 °C 63 % 1012,4 hPa 0,0 l/m² 0,7 km/h (0 Bft) N 355 ° 5,4 °C 12,2 °C
09.05.2026 08:47 12,2 °C 64 % 1012,4 hPa 0,0 l/m² 3,0 km/h (1 Bft) N 355 ° 5,6 °C 12,2 °C
09.05.2026 08:44 11,9 °C 65 % 1012,4 hPa 0,0 l/m² 3,0 km/h (1 Bft) N 355 ° 5,5 °C 11,9 °C
09.05.2026 08:42 11,9 °C 65 % 1012,4 hPa 0,0 l/m² 0,5 km/h (0 Bft) N 355 ° 5,5 °C 11,9 °C
09.05.2026 08:40 11,7 °C 66 % 1012,4 hPa 0,0 l/m² 0,5 km/h (0 Bft) N 360 ° 5,6 °C 11,7 °C
09.05.2026 08:38 11,5 °C 67 % 1012,4 hPa 0,0 l/m² 0,0 km/h (0 Bft) N 355 ° 5,6 °C 11,5 °C
09.05.2026 08:37 11,5 °C 67 % 1012,4 hPa 0,0 l/m² 0,0 km/h (0 Bft) N 355 ° 5,6 °C 11,5 °C
09.05.2026 08:35 11,4 °C 67 % 1012,4 hPa 0,0 l/m² 2,8 km/h (1 Bft) N 355 ° 5,5 °C 11,4 °C
09.05.2026 08:33 11,4 °C 69 % 1012,4 hPa 0,0 l/m² 3,1 km/h (1 Bft) N 355 ° 5,9 °C 11,4 °C
09.05.2026 08:31 11,1 °C 71 % 1012,4 hPa 0,0 l/m² 3,1 km/h (1 Bft) N 355 ° 6,0 °C 11,1 °C
09.05.2026 08:29 11,1 °C 71 % 1012,4 hPa 0,0 l/m² 0,5 km/h (0 Bft) N 355 ° 6,0 °C 11,1 °C
09.05.2026 08:27 10,9 °C 72 % 1012,5 hPa 0,0 l/m² 0,0 km/h (0 Bft) N 355 ° 6,1 °C 10,9 °C
09.05.2026 08:25 10,8 °C 71 % 1012,5 hPa 0,0 l/m² 0,0 km/h (0 Bft) N 355 ° 5,8 °C 10,8 °C
09.05.2026 08:23 10,8 °C 71 % 1012,5 hPa 0,0 l/m² 0,0 km/h (0 Bft) N 355 ° 5,8 °C 10,8 °C
09.05.2026 08:21 10,6 °C 72 % 1012,5 hPa 0,0 l/m² 0,0 km/h (0 Bft) N 355 ° 5,8 °C 10,6 °C
09.05.2026 08:19 10,4 °C 74 % 1012,5 hPa 0,0 l/m² 0,6 km/h (0 Bft) N 355 ° 6,0 °C 10,4 °C
09.05.2026 08:17 10,4 °C 74 % 1012,5 hPa 0,0 l/m² 0,6 km/h (0 Bft) N 355 ° 6,0 °C 10,4 °C
09.05.2026 08:15 10,4 °C 74 % 1012,5 hPa 0,0 l/m² 0,0 km/h (0 Bft) N 355 ° 6,0 °C 10,4 °C
09.05.2026 08:13 10,3 °C 74 % 1012,5 hPa 0,0 l/m² 0,0 km/h (0 Bft) N 355 ° 5,9 °C 10,3 °C
09.05.2026 08:11 10,3 °C 74 % 1012,5 hPa 0,0 l/m² 0,0 km/h (0 Bft) N 355 ° 5,9 °C 10,3 °C
09.05.2026 08:09 10,2 °C 74 % 1012,5 hPa 0,0 l/m² 0,0 km/h (0 Bft) N 355 ° 5,8 °C 10,2 °C
09.05.2026 08:07 10,1 °C 74 % 1012,5 hPa 0,0 l/m² 0,1 km/h (0 Bft) N 355 ° 5,7 °C 10,1 °C
09.05.2026 08:05 10,1 °C 74 % 1012,5 hPa 0,0 l/m² 0,4 km/h (0 Bft) N 355 ° 5,7 °C 10,1 °C
09.05.2026 08:03 10,0 °C 75 % 1012,5 hPa 0,0 l/m² 0,0 km/h (0 Bft) N 355 ° 5,8 °C 10,0 °C
09.05.2026 08:01 9,9 °C 76 % 1012,5 hPa 0,0 l/m² 0,0 km/h (0 Bft) N 355 ° 5,9 °C 9,9 °C
09.05.2026 07:58 9,9 °C 76 % 1012,5 hPa 0,0 l/m² 1,0 km/h (0 Bft) N 355 ° 5,9 °C 9,9 °C
09.05.2026 07:56 9,9 °C 76 % 1012,5 hPa 0,0 l/m² 0,3 km/h (0 Bft) N 5 ° 5,9 °C 9,9 °C
09.05.2026 07:55 9,8 °C 77 % 1012,5 hPa 0,0 l/m² 0,3 km/h (0 Bft) N 5 ° 6,0 °C 9,8 °C
09.05.2026 07:53 9,8 °C 77 % 1012,5 hPa 0,0 l/m² 0,0 km/h (0 Bft) N 5 ° 6,0 °C 9,8 °C
09.05.2026 07:51 9,7 °C 77 % 1012,5 hPa 0,0 l/m² 0,0 km/h (0 Bft) N 5 ° 5,9 °C 9,7 °C
09.05.2026 07:49 9,6 °C 78 % 1012,5 hPa 0,0 l/m² 0,6 km/h (0 Bft) N 5 ° 6,0 °C 9,6 °C
09.05.2026 07:47 9,6 °C 78 % 1012,5 hPa 0,0 l/m² 0,6 km/h (0 Bft) N 5 ° 6,0 °C 9,6 °C
_ Min-Zeit 06:38 09:05 00:01 - 00:05 - - 04:47 06:38
Minimum _ 8,4 °C 59 % 1011,4 hPa - 0,0 km/h (0 Bft) - - 4,6 °C 8,4 °C
_ Max-Zeit 09:07 06:51 06:38 00:01 09:07 - - 08:27 09:07
Maximum _ 13,0 °C 81 % 1012,6 hPa 0,0 l/m² 4,6 km/h
N (1 Bft)
- - 6,1 °C 13,0 °C
Durchschnitt _ 10,1 °C 72 % 1011,9 hPa #0,0 l/m² 0,2 km/h (0 Bft) N - 5,3 °C 10,1 °C